Weather forecast for Chervonyi Kut (Червоный Кут)

Ukraine, 146 m
N47.393, E30.455


Sounding

Red line — air temperature ˚C.
Blue line — thermal bubble temperature ˚C.
Green line — dew point temperature ˚C.
Wind speed is in meters per second.

Table forecast

GFS 0.25˚ model

temp. wind gust humid. clouds prec. press. hpbl
Sat18 00:00 4 103.0 ese 1 2 62 80 0.0 1024 22
03:00 3 94.0 e 1 2 69 60 0.0 1023 22
06:00 2 83.0 e 2 2 79 53 0.0 1021 22
09:00 3 81.0 e 2 3 85 71 0.0 1020 74
12:00 6 114.0 ese 3 5 67 99 0.0 1020 430
15:00 6 118.0 ese 3 4 66 97 0.1 1018 380
18:00 4 114.0 ese 2 3 80 75 0.0 1017 44
21:00 3 105.0 ese 1 2 83 87 0.0 1016 22
 
Sun19 00:00 4 156.0 sse 1 1 81 99 0.1 1014 22
03:00 4 207.0 ssw 1 1 85 97 0.3 1013 22
06:00 3 248.0 wsw 0 1 89 97 0.0 1012 22
09:00 4 212.0 ssw 0 0 89 86 0.1 1011 22
12:00 6 214.0 sw 1 1 80 98 0.4 1011 252
15:00 7 285.0 wnw 2 2 81 99 0.9 1010 358
18:00 6 338.0 nnw 2 2 90 96 0.3 1010 71
21:00 5 340.0 nnw 2 3 93 88 0.3 1011 74
 
Mon20 00:00 4 351.0 n 3 5 93 99 0.0 1011 124
03:00 3 8.0 n 3 7 89 99 0.0 1011 190
06:00 3 7.0 n 3 7 82 100 0.0 1011 200
09:00 3 348.0 nnw 3 6 79 100 0.0 1012 177
12:00 5 337.0 nnw 4 6 64 100 0.0 1012 428
15:00 8 317.0 nw 4 6 52 91 0.0 1011 1087
18:00 5 288.0 wnw 3 3 61 0 0.0 1012 39
21:00 3 295.0 wnw 3 6 63 4 0.0 1013 120
 
Tue21 00:00 2 284.0 wnw 3 6 67 0 0.0 1013 116
03:00 2 276.0 w 4 11 69 0 0.0 1014 295
06:00 0 275.0 w 4 9 77 0 0.0 1014 274
09:00 0 267.0 w 3 8 80 0 0.0 1015 280
12:00 5 279.0 w 5 8 55 0 0.0 1014 1049
15:00 7 258.0 wsw 5 7 45 3 0.0 1013 1382
18:00 5 236.0 sw 2 4 58 99 0.1 1013 96
21:00 4 257.0 wsw 0 1 66 99 0.3 1013 22
 
Wed22 00:00 3 35.0 ne 2 2 71 96 0.1 1014 22
03:00 1 22.0 nne 3 3 74 50 0.1 1015 57
06:00 -0 12.0 nne 3 6 80 0 0.0 1017 112
09:00 -1 5.0 n 3 6 86 0 0.0 1019 168
12:00 4 352.0 n 5 6 59 0 0.0 1021 775
15:00 4 339.0 nnw 5 7 49 0 0.0 1021 1082
18:00 1 349.0 n 3 3 60 0 0.0 1023 66
21:00 -0 2.0 n 1 2 66 35 0.0 1025 21
 

0.014 s